createdAt,value
2022-12-18T00:02:35.852Z,-0.28
2022-12-18T00:07:37.452Z,-0.40
2022-12-18T00:12:38.994Z,-0.48
2022-12-18T00:17:40.496Z,-0.41
2022-12-18T00:22:41.967Z,-0.48
2022-12-18T00:27:43.444Z,-0.52
2022-12-18T00:32:44.939Z,-0.49
2022-12-18T00:37:46.427Z,-0.44
2022-12-18T00:42:47.943Z,-0.38
2022-12-18T00:47:49.403Z,-0.38
2022-12-18T00:52:51.340Z,-0.37
2022-12-18T00:57:53.087Z,-0.38
2022-12-18T01:02:54.630Z,-0.45
2022-12-18T01:07:57.259Z,-0.44
2022-12-18T01:12:58.783Z,-0.48
2022-12-18T01:18:00.238Z,-0.47
2022-12-18T01:23:02.116Z,-0.53
2022-12-18T01:28:03.990Z,-0.58
2022-12-18T01:33:07.379Z,-0.60
2022-12-18T01:38:10.587Z,-0.56
2022-12-18T01:43:12.578Z,-0.55
2022-12-18T01:48:14.996Z,-0.56
2022-12-18T01:53:21.753Z,-0.52
2022-12-18T01:58:33.804Z,-0.51
2022-12-18T02:03:35.804Z,-0.50
2022-12-18T02:08:54.211Z,-0.45
2022-12-18T02:14:27.124Z,-0.45
2022-12-18T02:20:13.169Z,-0.45
2022-12-18T02:25:22.374Z,-0.60
2022-12-18T02:30:24.285Z,-0.64
2022-12-18T02:35:29.881Z,-0.61
2022-12-18T02:40:34.035Z,-0.60
2022-12-18T02:45:36.280Z,-0.67
2022-12-18T02:50:46.384Z,-0.61
2022-12-18T02:56:10.891Z,-0.59
2022-12-18T03:01:39.536Z,-0.63
2022-12-18T03:06:47.324Z,-0.68
2022-12-18T03:11:57.783Z,-0.67
2022-12-18T03:17:09.732Z,-0.68
2022-12-18T03:22:11.778Z,-0.78
2022-12-18T03:27:24.649Z,-0.79
2022-12-18T03:32:34.218Z,-0.78
2022-12-18T03:37:36.055Z,-0.86
2022-12-18T03:42:57.740Z,-0.92
2022-12-18T03:48:14.203Z,-0.87
2022-12-18T03:53:41.802Z,-0.88
2022-12-18T03:58:45.296Z,-0.84
2022-12-18T04:04:02.250Z,-0.82
2022-12-18T04:09:08.242Z,-0.79
2022-12-18T04:14:17.696Z,-0.70
2022-12-18T04:19:20.106Z,-0.80
2022-12-18T04:24:24.626Z,-0.87
2022-12-18T04:29:41.656Z,-0.91
2022-12-18T04:34:43.397Z,-0.81
2022-12-18T04:39:45.253Z,-0.91
2022-12-18T04:44:55.322Z,-0.87
2022-12-18T04:49:56.799Z,-0.85
2022-12-18T04:54:58.280Z,-0.95
2022-12-18T04:59:59.711Z,-0.98
2022-12-18T05:05:01.160Z,-0.98
2022-12-18T05:10:03.008Z,-0.98
2022-12-18T05:15:04.855Z,-1.01
2022-12-18T05:20:06.512Z,-0.97
2022-12-18T05:25:08.417Z,-0.97
2022-12-18T05:30:12.042Z,-0.98
2022-12-18T05:35:13.518Z,-1.03
2022-12-18T05:40:14.951Z,-1.09
2022-12-18T05:45:16.438Z,-1.00
2022-12-18T05:50:18.061Z,-1.03
2022-12-18T05:55:19.500Z,-1.05
2022-12-18T06:00:20.963Z,-1.08
2022-12-18T06:05:22.495Z,-1.13
2022-12-18T06:10:23.896Z,-1.13
2022-12-18T06:15:25.311Z,-1.12
2022-12-18T06:20:30.530Z,-1.21
2022-12-18T06:25:37.722Z,-1.23
2022-12-18T06:30:39.193Z,-1.25
2022-12-18T06:35:41.067Z,-1.34
2022-12-18T06:40:42.476Z,-1.35
2022-12-18T06:45:43.967Z,-1.35
2022-12-18T06:50:45.463Z,-1.41
2022-12-18T06:55:46.989Z,-1.50
2022-12-18T07:00:48.421Z,-1.50
2022-12-18T07:05:49.868Z,-1.45
2022-12-18T07:10:55.878Z,-1.34
2022-12-18T07:16:06.828Z,-1.35
2022-12-18T07:21:14.520Z,-1.37
2022-12-18T07:26:18.666Z,-1.40
2022-12-18T07:31:22.260Z,-1.49
2022-12-18T07:36:24.135Z,-1.45
2022-12-18T07:41:25.610Z,-1.43
2022-12-18T07:46:27.115Z,-1.44
2022-12-18T07:51:28.532Z,-1.42
2022-12-18T07:56:31.363Z,-1.38
2022-12-18T08:01:34.207Z,-1.37
2022-12-18T08:06:35.929Z,-1.44
2022-12-18T08:11:37.331Z,-1.49
2022-12-18T08:16:38.866Z,-1.51
2022-12-18T08:21:40.393Z,-1.47
2022-12-18T08:26:45.554Z,-1.43
2022-12-18T08:31:53.459Z,-1.38
2022-12-18T08:36:54.896Z,-1.42
2022-12-18T08:41:56.361Z,-1.41
2022-12-18T08:46:57.849Z,-1.38
2022-12-18T08:51:59.483Z,-1.32
2022-12-18T08:57:00.982Z,-1.42
2022-12-18T09:02:02.802Z,-1.43
2022-12-18T09:07:04.582Z,-1.48
2022-12-18T09:12:06.252Z,-1.49
2022-12-18T09:17:07.849Z,-1.51
2022-12-18T09:22:09.425Z,-1.49
2022-12-18T09:27:10.944Z,-1.50
2022-12-18T09:32:14.369Z,-1.39
2022-12-18T09:37:19.068Z,-1.28
2022-12-18T09:42:24.093Z,-1.17
2022-12-18T09:47:30.605Z,-1.14
2022-12-18T09:52:40.885Z,-0.99
2022-12-18T09:57:49.016Z,-1.11
2022-12-18T10:03:00.505Z,-1.09
2022-12-18T10:08:27.497Z,-1.11
2022-12-18T10:14:00.788Z,-1.15
2022-12-18T10:19:22.435Z,-1.18
2022-12-18T10:24:38.967Z,-1.22
2022-12-18T10:29:42.777Z,-1.15
2022-12-18T10:34:55.333Z,-1.12
2022-12-18T10:40:18.196Z,-1.21
2022-12-18T10:45:24.154Z,-1.12
2022-12-18T10:51:01.711Z,-0.99
2022-12-18T10:55:58.165Z,-1.15
2022-12-18T11:01:17.586Z,-1.36
2022-12-18T11:06:22.587Z,-1.44
2022-12-18T11:11:25.353Z,-1.35
2022-12-18T11:16:28.359Z,-1.30
2022-12-18T11:21:29.886Z,-1.18
2022-12-18T11:26:35.867Z,-1.19
2022-12-18T11:31:38.688Z,-1.12
2022-12-18T11:36:45.344Z,-0.92
2022-12-18T11:41:55.558Z,-0.84
2022-12-18T11:58:31.307Z,-0.97
2022-12-18T14:24:14.640Z,-0.92
2022-12-18T14:29:31.162Z,-0.92
2022-12-18T14:34:32.632Z,-0.97
2022-12-18T14:39:34.088Z,-1.11
2022-12-18T14:44:50.743Z,-1.00
2022-12-18T14:49:57.010Z,-1.03
2022-12-18T14:54:58.481Z,-1.11
2022-12-18T15:00:15.645Z,-1.05
2022-12-18T15:49:24.589Z,-0.66
2022-12-18T15:54:26.767Z,-0.71
2022-12-18T15:59:28.258Z,-0.77
2022-12-18T20:17:39.607Z,-0.81
2022-12-18T20:22:41.363Z,-0.83
2022-12-18T20:32:44.388Z,-0.74
2022-12-18T20:37:49.813Z,-0.75
2022-12-18T20:42:52.412Z,-0.86
2022-12-18T20:47:55.140Z,-0.88
2022-12-18T20:52:56.615Z,-0.88
2022-12-18T20:57:58.096Z,-0.92
2022-12-18T21:02:59.589Z,-0.85
2022-12-18T21:08:01.127Z,-0.77
2022-12-18T21:13:04.670Z,-0.82
2022-12-18T21:18:09.359Z,-0.85
2022-12-18T21:34:02.233Z,-0.69
2022-12-18T21:39:04.019Z,-0.67
2022-12-18T21:44:06.187Z,-0.70
2022-12-18T21:49:09.035Z,-0.75
2022-12-18T21:54:11.426Z,-0.80
2022-12-18T21:59:15.807Z,-0.78
2022-12-18T22:04:18.136Z,-0.83
2022-12-18T22:09:22.029Z,-0.86
2022-12-18T22:14:23.633Z,-0.93
2022-12-18T22:19:25.479Z,-0.88
2022-12-18T22:24:27.255Z,-0.86
2022-12-18T22:29:28.994Z,-0.82
2022-12-18T22:34:36.566Z,-0.83
2022-12-18T22:39:38.260Z,-0.78
2022-12-18T22:44:40.076Z,-0.74
2022-12-18T22:49:41.590Z,-0.69
2022-12-18T22:54:43.094Z,-0.69
2022-12-18T22:59:44.547Z,-0.66
2022-12-18T23:04:46.060Z,-0.74
2022-12-18T23:09:47.843Z,-0.64
2022-12-18T23:14:51.412Z,-0.55
2022-12-18T23:19:52.831Z,-0.51
2022-12-18T23:24:54.290Z,-0.50
2022-12-18T23:29:55.716Z,-0.55
2022-12-18T23:34:59.865Z,-0.43
2022-12-18T23:40:01.284Z,-0.46
2022-12-18T23:45:12.278Z,-0.48
2022-12-18T23:50:19.384Z,-0.49
2022-12-18T23:55:25.265Z,-0.51
